createdAt,value
2023-03-28T00:00:51.333Z,-0.23
2023-03-28T00:01:51.331Z,-0.14
2023-03-28T00:02:51.354Z,-0.15
2023-03-28T00:03:51.334Z,-0.05
2023-03-28T00:04:51.292Z,-0.07
2023-03-28T00:05:51.319Z,-0.10
2023-03-28T00:06:51.273Z,-0.08
2023-03-28T00:07:51.247Z,-0.14
2023-03-28T00:08:51.237Z,-0.10
2023-03-28T00:09:51.263Z,-0.14
2023-03-28T00:10:51.233Z,-0.16
2023-03-28T00:11:51.225Z,-0.16
2023-03-28T00:12:51.199Z,-0.16
2023-03-28T00:13:51.184Z,-0.11
2023-03-28T00:14:51.169Z,-0.15
2023-03-28T00:15:51.208Z,-0.07
2023-03-28T00:16:51.152Z,-0.08
2023-03-28T00:17:51.181Z,-0.03
2023-03-28T00:18:51.246Z,-0.07
2023-03-28T00:19:51.127Z,-0.05
2023-03-28T00:20:51.095Z,-0.05
2023-03-28T00:21:51.114Z,-0.03
2023-03-28T00:22:51.098Z,-0.08
2023-03-28T00:23:51.088Z,-0.04
2023-03-28T00:24:51.049Z,-0.07
2023-03-28T00:25:51.062Z,-0.03
2023-03-28T00:26:51.054Z,-0.05
2023-03-28T00:27:51.023Z,-0.11
2023-03-28T00:28:51.038Z,-0.08
2023-03-28T00:29:51.001Z,-0.08
2023-03-28T00:30:51.069Z,-0.07
2023-03-28T00:31:51.080Z,-0.04
2023-03-28T00:32:51.062Z,-0.07
2023-03-28T00:33:50.990Z,-0.11
2023-03-28T00:34:50.952Z,-0.14
2023-03-28T00:35:50.958Z,-0.05
2023-03-28T00:36:50.934Z,-0.05
2023-03-28T00:37:50.924Z,-0.18
2023-03-28T00:38:50.915Z,-0.18
2023-03-28T00:39:50.887Z,-0.16
2023-03-28T00:40:50.882Z,-0.11
2023-03-28T00:41:50.884Z,-0.10
2023-03-28T00:42:50.868Z,-0.18
2023-03-28T00:43:50.862Z,-0.11
2023-03-28T00:44:50.854Z,-0.08
2023-03-28T00:45:59.221Z,-0.10
2023-03-28T00:46:51.874Z,-0.08
2023-03-28T00:47:50.858Z,-0.10
2023-03-28T00:48:50.784Z,-0.11
2023-03-28T00:49:50.782Z,-0.16
2023-03-28T00:50:50.764Z,-0.19
2023-03-28T00:51:50.754Z,-0.21
2023-03-28T00:52:50.744Z,-0.14
2023-03-28T00:53:50.753Z,-0.16
2023-03-28T00:54:50.716Z,-0.18
2023-03-28T00:55:50.722Z,-0.15
2023-03-28T00:56:50.816Z,-0.18
2023-03-28T00:57:50.731Z,-0.10
2023-03-28T00:58:50.685Z,-0.15
2023-03-28T00:59:50.661Z,-0.21
2023-03-28T01:00:50.684Z,-0.21
2023-03-28T01:01:50.756Z,-0.21
2023-03-28T01:02:50.817Z,-0.21
2023-03-28T01:03:50.703Z,-0.16
2023-03-28T01:04:50.610Z,-0.15
2023-03-28T01:05:50.605Z,-0.15
2023-03-28T01:06:50.587Z,-0.14
2023-03-28T01:07:50.593Z,-0.19
2023-03-28T01:08:50.557Z,-0.16
2023-03-28T01:09:50.552Z,-0.18
2023-03-28T01:10:50.541Z,-0.23
2023-03-28T01:11:50.535Z,-0.16
2023-03-28T01:12:50.527Z,-0.11
2023-03-28T01:13:50.531Z,-0.22
2023-03-28T01:14:50.490Z,-0.18
2023-03-28T01:15:50.576Z,-0.11
2023-03-28T01:16:50.470Z,-0.15
2023-03-28T01:17:50.521Z,-0.23
2023-03-28T01:18:50.462Z,-0.23
2023-03-28T01:19:50.462Z,-0.21
2023-03-28T01:20:50.420Z,-0.26
2023-03-28T01:21:50.402Z,-0.26
2023-03-28T01:22:56.952Z,-0.22
2023-03-28T01:23:51.380Z,-0.31
2023-03-28T01:24:50.382Z,-0.29
2023-03-28T01:25:50.378Z,-0.26
2023-03-28T01:26:50.360Z,-0.26
2023-03-28T01:27:50.340Z,-0.33
2023-03-28T01:28:50.346Z,-0.22
2023-03-28T01:29:50.331Z,-0.22
2023-03-28T01:30:50.317Z,-0.29
2023-03-28T01:31:50.326Z,-0.34
2023-03-28T01:32:50.346Z,-0.31
2023-03-28T01:33:50.269Z,-0.31
2023-03-28T01:34:50.262Z,-0.33
2023-03-28T01:35:50.299Z,-0.19
2023-03-28T01:36:50.252Z,-0.25
2023-03-28T01:37:50.227Z,-0.40
2023-03-28T01:38:50.212Z,-0.26
2023-03-28T01:39:50.204Z,-0.34
2023-03-28T01:40:50.222Z,-0.34
2023-03-28T01:41:50.180Z,-0.28
2023-03-28T01:42:50.186Z,-0.34
2023-03-28T01:43:50.176Z,-0.29
2023-03-28T01:44:50.148Z,-0.29
2023-03-28T01:45:50.216Z,-0.28
2023-03-28T01:46:50.153Z,-0.25
2023-03-28T01:47:50.128Z,-0.26
2023-03-28T01:48:50.108Z,-0.28
2023-03-28T01:49:50.087Z,-0.23
2023-03-28T01:50:50.078Z,-0.26
2023-03-28T01:51:50.102Z,-0.26
2023-03-28T01:52:50.062Z,-0.33
2023-03-28T01:53:50.045Z,-0.25
2023-03-28T01:54:50.048Z,-0.28
2023-03-28T01:55:50.024Z,-0.28
2023-03-28T01:56:50.066Z,-0.39
2023-03-28T01:57:50.067Z,-0.37
2023-03-28T01:58:49.993Z,-0.26
2023-03-28T01:59:49.982Z,-0.28
2023-03-28T02:00:49.991Z,-0.31
2023-03-28T02:01:49.975Z,-0.31
2023-03-28T02:02:50.088Z,-0.22
2023-03-28T02:03:49.930Z,-0.26
2023-03-28T02:04:49.932Z,-0.26
2023-03-28T02:05:49.924Z,-0.34
2023-03-28T02:06:49.922Z,-0.36
2023-03-28T02:07:49.886Z,-0.40
2023-03-28T02:08:49.879Z,-0.42
2023-03-28T02:09:49.862Z,-0.26
2023-03-28T02:10:49.884Z,-0.26
2023-03-28T02:11:49.843Z,-0.29
2023-03-28T02:12:49.840Z,-0.29
2023-03-28T02:13:49.848Z,-0.31
2023-03-28T02:14:49.810Z,-0.26
2023-03-28T02:15:49.817Z,-0.29
2023-03-28T02:16:49.944Z,-0.25
2023-03-28T02:17:49.862Z,-0.25
2023-03-28T02:18:49.806Z,-0.33
2023-03-28T02:19:49.760Z,-0.40
2023-03-28T02:20:49.759Z,-0.33
2023-03-28T02:21:49.733Z,-0.36
2023-03-28T02:22:49.746Z,-0.31
2023-03-28T02:23:49.722Z,-0.44
2023-03-28T02:24:49.823Z,-0.37
2023-03-28T02:25:49.691Z,-0.28
2023-03-28T02:26:49.686Z,-0.26
2023-03-28T02:27:49.677Z,-0.33
2023-03-28T02:28:49.670Z,-0.39
2023-03-28T02:29:49.667Z,-0.26
2023-03-28T02:30:49.656Z,-0.28
2023-03-28T02:31:49.729Z,-0.25
2023-03-28T02:32:49.714Z,-0.23
2023-03-28T02:33:49.621Z,-0.26
2023-03-28T02:34:49.619Z,-0.37
2023-03-28T02:35:49.657Z,-0.34
2023-03-28T02:36:49.601Z,-0.33
2023-03-28T02:37:49.581Z,-0.36
2023-03-28T02:38:49.555Z,-0.26
2023-03-28T02:39:49.538Z,-0.36
2023-03-28T02:40:49.528Z,-0.40
2023-03-28T02:41:49.537Z,-0.29
2023-03-28T02:42:49.538Z,-0.28
2023-03-28T02:43:49.495Z,-0.28
2023-03-28T02:44:49.503Z,-0.26
2023-03-28T02:45:49.496Z,-0.29
2023-03-28T02:46:49.463Z,-0.26
2023-03-28T02:47:49.506Z,-0.33
2023-03-28T02:48:49.453Z,-0.31
2023-03-28T02:49:50.855Z,-0.37
2023-03-28T02:50:49.439Z,-0.37
2023-03-28T02:51:49.404Z,-0.43
2023-03-28T02:52:49.399Z,-0.44
2023-03-28T02:53:49.390Z,-0.34
2023-03-28T02:54:49.394Z,-0.42
2023-03-28T02:55:49.380Z,-0.40
2023-03-28T02:56:49.406Z,-0.39
2023-03-28T02:57:49.338Z,-0.34
2023-03-28T02:58:49.336Z,-0.40
2023-03-28T02:59:49.322Z,-0.33
2023-03-28T03:00:49.338Z,-0.28
2023-03-28T03:01:49.322Z,-0.42
2023-03-28T03:02:49.357Z,-0.39
2023-03-28T03:03:49.301Z,-0.40
2023-03-28T03:04:49.259Z,-0.46
2023-03-28T03:05:49.294Z,-0.51
2023-03-28T03:06:49.259Z,-0.44
2023-03-28T03:07:49.223Z,-0.55
2023-03-28T03:08:49.220Z,-0.49
2023-03-28T03:09:49.206Z,-0.55
2023-03-28T03:10:49.214Z,-0.58
2023-03-28T03:11:49.196Z,-0.51
2023-03-28T03:12:49.181Z,-0.51
2023-03-28T03:13:49.175Z,-0.57
2023-03-28T03:14:49.150Z,-0.67
2023-03-28T03:15:49.236Z,-0.70
2023-03-28T03:16:49.127Z,-0.64
2023-03-28T03:17:49.153Z,-0.60
2023-03-28T03:18:49.123Z,-0.64
2023-03-28T03:19:49.108Z,-0.69
2023-03-28T03:20:49.101Z,-0.60
2023-03-28T03:21:49.088Z,-0.75
2023-03-28T03:22:49.078Z,-0.64
2023-03-28T03:23:49.051Z,-0.58
2023-03-28T03:24:49.056Z,-0.54
2023-03-28T03:25:49.056Z,-0.65
2023-03-28T03:26:49.012Z,-0.62
2023-03-28T03:27:49.000Z,-0.64
2023-03-28T03:28:48.989Z,-0.61
2023-03-28T03:29:49.001Z,-0.60
2023-03-28T03:30:48.975Z,-0.60
2023-03-28T03:31:49.018Z,-0.62
2023-03-28T03:32:48.991Z,-0.65
2023-03-28T03:33:48.933Z,-0.58
2023-03-28T03:34:48.948Z,-0.52
2023-03-28T03:35:48.915Z,-0.61
2023-03-28T03:36:48.897Z,-0.49
2023-03-28T03:37:48.999Z,-0.57
2023-03-28T03:38:48.874Z,-0.58
2023-03-28T03:39:48.861Z,-0.55
2023-03-28T03:40:48.873Z,-0.54
2023-03-28T03:41:48.841Z,-0.60
2023-03-28T03:42:48.831Z,-0.51
2023-03-28T03:43:48.852Z,-0.55
2023-03-28T03:44:48.820Z,-0.55
2023-03-28T03:45:48.813Z,-0.62
2023-03-28T03:46:49.004Z,-0.54
2023-03-28T03:47:48.869Z,-0.54
2023-03-28T03:48:49.990Z,-0.49
2023-03-28T03:49:48.772Z,-0.46
2023-03-28T03:50:48.750Z,-0.57
2023-03-28T03:51:48.729Z,-0.49
2023-03-28T03:52:48.718Z,-0.49
2023-03-28T03:53:48.743Z,-0.39
2023-03-28T03:54:48.696Z,-0.57
2023-03-28T03:55:48.682Z,-0.55
2023-03-28T03:56:48.723Z,-0.52
2023-03-28T03:57:48.662Z,-0.54
2023-03-28T03:58:48.652Z,-0.55
2023-03-28T03:59:48.636Z,-0.57
2023-03-28T04:00:48.627Z,-0.52
2023-03-28T04:01:48.659Z,-0.67
2023-03-28T04:02:48.664Z,-0.60
2023-03-28T04:03:48.619Z,-0.58
2023-03-28T04:04:48.623Z,-0.72
2023-03-28T04:05:48.569Z,-0.58
2023-03-28T04:06:48.558Z,-0.55
2023-03-28T04:07:48.583Z,-0.64
2023-03-28T04:08:49.381Z,-0.64
2023-03-28T04:09:48.557Z,-0.57
2023-03-28T04:10:48.522Z,-0.64
2023-03-28T04:11:48.499Z,-0.58
2023-03-28T04:12:48.512Z,-0.61
2023-03-28T04:13:48.478Z,-0.55
2023-03-28T04:14:48.477Z,-0.69
2023-03-28T04:15:48.478Z,-0.61
2023-03-28T04:16:48.443Z,-0.57
2023-03-28T04:17:48.518Z,-0.61
2023-03-28T04:18:48.423Z,-0.64
2023-03-28T04:19:48.412Z,-0.55
2023-03-28T04:20:48.410Z,-0.70
2023-03-28T04:21:48.391Z,-0.61
2023-03-28T04:22:57.578Z,-0.70
2023-03-28T04:23:48.459Z,-0.64
2023-03-28T04:24:48.359Z,-0.69
2023-03-28T04:25:48.421Z,-0.67
2023-03-28T04:26:48.356Z,-0.64
2023-03-28T04:27:48.337Z,-0.67
2023-03-28T04:28:48.352Z,-0.67
2023-03-28T04:29:48.322Z,-0.64
2023-03-28T04:30:48.299Z,-0.72
2023-03-28T04:31:48.351Z,-0.72
2023-03-28T04:32:48.312Z,-0.67
2023-03-28T04:33:48.318Z,-0.69
2023-03-28T04:34:48.318Z,-0.70
2023-03-28T04:35:48.352Z,-0.78
2023-03-28T04:36:48.226Z,-0.65
2023-03-28T04:37:48.228Z,-0.64
2023-03-28T04:38:48.435Z,-0.54
2023-03-28T04:39:48.229Z,-0.61
2023-03-28T04:40:48.190Z,-0.64
2023-03-28T04:41:48.266Z,-0.65
2023-03-28T04:42:48.224Z,-0.61
2023-03-28T04:43:48.180Z,-0.62
2023-03-28T04:44:48.172Z,-0.62
2023-03-28T04:45:48.203Z,-0.67
2023-03-28T04:46:48.117Z,-0.65
2023-03-28T04:47:48.225Z,-0.70
2023-03-28T04:48:48.117Z,-0.73
2023-03-28T04:49:48.124Z,-0.73
2023-03-28T04:50:48.128Z,-0.69
2023-03-28T04:51:48.125Z,-0.69
2023-03-28T04:52:48.119Z,-0.69
2023-03-28T04:53:48.056Z,-0.69
2023-03-28T04:54:48.073Z,-0.72
2023-03-28T04:55:48.084Z,-0.76
2023-03-28T04:56:48.134Z,-0.65
2023-03-28T04:57:48.031Z,-0.79
2023-03-28T04:58:48.013Z,-0.67
2023-03-28T04:59:47.976Z,-0.67
2023-03-28T05:00:47.967Z,-0.69
2023-03-28T05:01:47.998Z,-0.76
2023-03-28T05:02:48.084Z,-0.70
2023-03-28T05:03:47.998Z,-0.70
2023-03-28T05:04:47.932Z,-0.76
2023-03-28T05:05:47.898Z,-0.80
2023-03-28T05:06:47.893Z,-0.73
2023-03-28T05:07:47.878Z,-0.79
2023-03-28T05:08:47.867Z,-0.82
2023-03-28T05:09:47.897Z,-0.82
2023-03-28T05:10:47.861Z,-0.83
2023-03-28T05:11:47.837Z,-0.73
2023-03-28T05:12:47.820Z,-0.79
2023-03-28T05:13:47.824Z,-0.78
2023-03-28T05:14:47.856Z,-0.78
2023-03-28T05:15:47.829Z,-0.78
2023-03-28T05:16:47.812Z,-0.69
2023-03-28T05:17:47.810Z,-0.73
2023-03-28T05:18:47.751Z,-0.72
2023-03-28T05:19:47.738Z,-0.72
2023-03-28T05:20:47.759Z,-0.69
2023-03-28T05:21:47.758Z,-0.75
2023-03-28T05:22:47.718Z,-0.67
2023-03-28T05:23:51.709Z,-0.67
2023-03-28T05:24:47.710Z,-0.76
2023-03-28T05:25:47.693Z,-0.69
2023-03-28T05:26:47.661Z,-0.73
2023-03-28T05:27:47.691Z,-0.73
2023-03-28T05:28:47.682Z,-0.70
2023-03-28T05:29:48.048Z,-0.75
2023-03-28T05:30:47.716Z,-0.70
2023-03-28T05:31:47.787Z,-0.75
2023-03-28T05:32:47.686Z,-0.78
2023-03-28T05:33:47.596Z,-0.85
2023-03-28T05:34:47.640Z,-0.80
2023-03-28T05:35:47.605Z,-0.79
2023-03-28T05:36:47.550Z,-0.83
2023-03-28T05:37:47.601Z,-0.78
2023-03-28T05:38:47.531Z,-0.75
2023-03-28T05:39:47.536Z,-0.78
2023-03-28T05:40:47.503Z,-0.80
2023-03-28T05:41:47.493Z,-0.73
2023-03-28T05:42:47.522Z,-0.78
2023-03-28T05:43:47.472Z,-0.75
2023-03-28T05:44:47.470Z,-0.79
2023-03-28T05:45:47.523Z,-0.80
2023-03-28T05:46:47.436Z,-0.83
2023-03-28T05:47:47.489Z,-0.78
2023-03-28T05:48:49.618Z,-0.80
2023-03-28T05:49:47.420Z,-0.79
2023-03-28T05:50:47.392Z,-0.75
2023-03-28T05:51:47.384Z,-0.92
2023-03-28T05:52:47.392Z,-0.76
2023-03-28T05:53:47.366Z,-0.82
2023-03-28T05:54:50.629Z,-0.78
2023-03-28T05:55:47.342Z,-0.78
2023-03-28T05:56:47.400Z,-0.80
2023-03-28T05:57:47.350Z,-0.73
2023-03-28T05:58:47.307Z,-0.67
2023-03-28T05:59:47.373Z,-0.69
2023-03-28T06:00:47.292Z,-0.79
2023-03-28T06:01:47.406Z,-0.78
2023-03-28T06:02:47.306Z,-0.80
2023-03-28T06:03:47.309Z,-0.73
2023-03-28T06:04:47.289Z,-0.76
2023-03-28T06:05:47.249Z,-0.64
2023-03-28T06:06:47.229Z,-0.69
2023-03-28T06:07:47.226Z,-0.65
2023-03-28T06:08:47.210Z,-0.42
2023-03-28T06:09:47.183Z,-0.40
2023-03-28T06:10:47.164Z,-0.47
2023-03-28T06:11:47.172Z,-0.40
2023-03-28T06:12:47.163Z,-0.28
2023-03-28T06:13:47.139Z,-0.19
2023-03-28T06:14:47.120Z,-0.07
2023-03-28T06:15:47.133Z,-0.03
2023-03-28T06:16:47.140Z,0.03
2023-03-28T06:17:47.200Z,0.00
2023-03-28T06:18:47.078Z,-0.03
2023-03-28T06:19:47.074Z,-0.03
2023-03-28T06:20:47.054Z,0.08
2023-03-28T06:21:47.047Z,0.24
2023-03-28T06:22:47.048Z,0.31
2023-03-28T06:23:47.032Z,0.42
2023-03-28T06:24:47.004Z,0.42
2023-03-28T06:25:47.057Z,0.41
2023-03-28T06:26:46.987Z,0.20
2023-03-28T06:27:46.993Z,0.11
2023-03-28T06:28:46.965Z,-0.03
2023-03-28T06:29:46.987Z,-0.16
2023-03-28T06:30:46.941Z,-0.37
2023-03-28T06:31:47.017Z,-0.36
2023-03-28T06:32:46.967Z,-0.31
2023-03-28T06:33:46.943Z,-0.43
2023-03-28T06:34:46.900Z,-0.49
2023-03-28T06:35:47.015Z,-0.46
2023-03-28T06:36:46.877Z,-0.47
2023-03-28T06:37:46.907Z,-0.44
2023-03-28T06:38:46.988Z,-0.43
2023-03-28T06:39:46.850Z,-0.43
2023-03-28T06:40:46.885Z,-0.51
2023-03-28T06:41:46.853Z,-0.57
2023-03-28T06:42:46.829Z,-0.64
2023-03-28T06:43:46.799Z,-0.61
2023-03-28T06:44:46.810Z,-0.65
2023-03-28T06:45:46.785Z,-0.70
2023-03-28T06:46:46.866Z,-0.65
2023-03-28T06:47:46.842Z,-0.67
2023-03-28T06:48:46.738Z,-0.62
2023-03-28T06:49:46.753Z,-0.72
2023-03-28T06:50:54.390Z,-0.72
2023-03-28T06:51:54.390Z,-0.72
2023-03-28T06:52:46.780Z,-0.69
2023-03-28T06:53:46.711Z,-0.69
2023-03-28T06:54:53.868Z,-0.67
2023-03-28T06:55:54.344Z,-0.62
2023-03-28T06:56:46.712Z,-0.62
2023-03-28T06:57:46.649Z,-0.51
2023-03-28T06:58:46.647Z,-0.46
2023-03-28T06:59:46.648Z,-0.49
2023-03-28T07:00:46.654Z,-0.62
2023-03-28T07:01:46.631Z,-0.58
2023-03-28T07:02:46.651Z,-0.65
2023-03-28T07:03:47.021Z,-0.65
2023-03-28T07:04:46.573Z,-0.57
2023-03-28T07:05:46.612Z,-0.51
2023-03-28T07:06:46.566Z,-0.58
2023-03-28T07:07:46.528Z,-0.51
2023-03-28T07:08:46.532Z,-0.52
2023-03-28T07:09:46.531Z,-0.58
2023-03-28T07:10:46.495Z,-0.43
2023-03-28T07:11:46.502Z,-0.49
2023-03-28T07:12:46.479Z,-0.40
2023-03-28T07:13:46.510Z,-0.46
2023-03-28T07:14:46.480Z,-0.43
2023-03-28T07:15:46.468Z,-0.52
2023-03-28T07:16:46.466Z,-0.54
2023-03-28T07:17:46.489Z,-0.49
2023-03-28T07:18:46.438Z,-0.43
2023-03-28T07:19:46.941Z,-0.19
2023-03-28T07:20:51.925Z,-0.01
2023-03-28T07:21:47.526Z,0.29
2023-03-28T07:22:46.448Z,0.70
2023-03-28T07:23:46.366Z,1.09
2023-03-28T07:24:46.338Z,1.33
2023-03-28T07:25:46.337Z,1.58
2023-03-28T07:26:46.313Z,1.68
2023-03-28T07:27:46.334Z,1.88
2023-03-28T07:28:46.313Z,2.02
2023-03-28T07:29:46.310Z,2.14
2023-03-28T07:30:46.284Z,2.23
2023-03-28T07:31:46.332Z,2.35
2023-03-28T07:33:46.271Z,2.61
2023-03-28T07:34:46.254Z,2.72
2023-03-28T07:35:46.291Z,2.48
2023-03-28T07:36:46.239Z,2.39
2023-03-28T07:37:46.216Z,2.18
2023-03-28T07:38:48.637Z,2.09
2023-03-28T07:39:46.183Z,1.77
2023-03-28T07:40:46.192Z,1.60
2023-03-28T07:41:46.170Z,1.52
2023-03-28T07:42:46.142Z,1.51
2023-03-28T07:43:46.120Z,1.36
2023-03-28T07:44:46.130Z,1.34
2023-03-28T07:45:46.135Z,1.73
2023-03-28T07:46:46.114Z,2.09
2023-03-28T07:47:46.096Z,2.17
2023-03-28T07:48:46.092Z,2.14
2023-03-28T07:49:46.064Z,1.99
2023-03-28T07:50:46.043Z,1.90
2023-03-28T07:51:46.032Z,1.70
2023-03-28T07:52:46.048Z,1.36
2023-03-28T07:53:46.202Z,1.24
2023-03-28T07:54:46.046Z,1.06
2023-03-28T07:55:54.558Z,0.96
2023-03-28T07:56:47.035Z,0.65
2023-03-28T07:57:45.973Z,0.69
2023-03-28T07:58:45.966Z,0.65
2023-03-28T07:59:45.973Z,0.73
2023-03-28T08:00:45.997Z,0.87
2023-03-28T08:01:46.224Z,0.88
2023-03-28T08:02:46.011Z,0.98
2023-03-28T08:03:46.012Z,1.18
2023-03-28T08:04:45.899Z,1.32
2023-03-28T08:05:45.951Z,1.33
2023-03-28T08:06:45.913Z,1.37
2023-03-28T08:07:45.888Z,1.45
2023-03-28T08:08:45.852Z,1.30
2023-03-28T08:09:45.883Z,1.32
2023-03-28T08:10:45.825Z,1.18
2023-03-28T08:11:45.809Z,1.15
2023-03-28T08:12:45.821Z,1.05
2023-03-28T08:13:45.794Z,0.90
2023-03-28T08:14:45.769Z,0.94
2023-03-28T08:15:45.805Z,0.88
2023-03-28T08:16:45.782Z,0.93
2023-03-28T08:17:45.812Z,0.94
2023-03-28T08:18:47.460Z,1.02
2023-03-28T08:19:45.737Z,1.22
2023-03-28T08:20:45.702Z,1.29
2023-03-28T08:21:45.695Z,1.41
2023-03-28T08:22:45.705Z,1.60
2023-03-28T08:23:45.692Z,1.69
2023-03-28T08:24:45.662Z,1.65
2023-03-28T08:25:45.732Z,1.54
2023-03-28T08:26:48.547Z,1.68
2023-03-28T08:27:45.699Z,1.84
2023-03-28T08:28:45.612Z,2.06
2023-03-28T08:29:45.628Z,2.06
2023-03-28T08:30:45.589Z,2.02
2023-03-28T08:31:45.685Z,2.07
2023-03-28T08:32:48.233Z,1.87
2023-03-28T08:33:45.583Z,1.70
2023-03-28T08:34:45.563Z,1.62
2023-03-28T08:35:45.572Z,1.36
2023-03-28T08:36:45.522Z,1.30
2023-03-28T08:37:45.534Z,1.18
2023-03-28T08:38:45.503Z,1.15
2023-03-28T08:39:45.491Z,1.20
2023-03-28T08:40:50.020Z,1.27
2023-03-28T08:41:45.504Z,1.14
2023-03-28T08:42:45.455Z,1.11
2023-03-28T08:43:45.471Z,0.91
2023-03-28T08:44:48.326Z,0.84
2023-03-28T08:45:45.439Z,0.83
2023-03-28T08:46:45.539Z,0.76
2023-03-28T08:47:45.496Z,0.94
2023-03-28T08:48:45.392Z,0.91
2023-03-28T08:49:45.391Z,0.93
2023-03-28T08:50:45.390Z,1.04
2023-03-28T08:51:45.401Z,1.16
2023-03-28T08:52:45.362Z,1.22
2023-03-28T08:53:45.385Z,1.26
2023-03-28T08:54:53.169Z,1.41
2023-03-28T08:55:45.500Z,1.51
2023-03-28T08:56:45.438Z,1.54
2023-03-28T08:57:45.448Z,1.52
2023-03-28T08:58:45.324Z,1.73
2023-03-28T08:59:45.302Z,1.86
2023-03-28T09:00:45.256Z,2.07
2023-03-28T09:01:45.431Z,2.07
2023-03-28T09:02:45.334Z,2.06
2023-03-28T09:03:45.324Z,2.07
2023-03-28T09:06:41.637Z,2.06
2023-03-28T09:07:41.915Z,2.12
2023-03-28T09:08:41.615Z,2.12
2023-03-28T09:09:49.436Z,2.09
2023-03-28T09:10:41.618Z,2.03
2023-03-28T09:13:16.526Z,2.21
2023-03-28T09:14:16.456Z,2.12
2023-03-28T09:15:16.387Z,2.20
2023-03-28T09:16:16.500Z,2.12
2023-03-28T09:17:24.587Z,2.00
2023-03-28T09:18:16.386Z,2.06
2023-03-28T09:20:43.688Z,1.86
2023-03-28T09:21:43.757Z,1.88
2023-03-28T09:22:43.752Z,1.70
2023-03-28T09:23:43.720Z,1.63
2023-03-28T09:24:43.752Z,1.48
2023-03-28T09:25:51.692Z,1.51
2023-03-28T09:26:44.028Z,1.59
2023-03-28T09:27:53.911Z,1.48
2023-03-28T09:30:11.503Z,1.84
2023-03-28T09:31:11.465Z,2.03
2023-03-28T09:42:09.922Z,2.16
2023-03-28T09:43:10.073Z,2.09
2023-03-28T09:44:10.514Z,2.00
2023-03-28T09:45:10.043Z,1.86
2023-03-28T09:46:09.883Z,1.81
2023-03-28T09:47:19.185Z,1.81
2023-03-28T09:48:10.205Z,2.05
2023-03-28T09:49:09.811Z,2.07
2023-03-28T09:50:13.336Z,2.06
2023-03-28T09:51:09.582Z,1.99
2023-03-28T09:52:10.536Z,2.35
2023-03-28T09:53:09.588Z,2.61
2023-03-28T09:54:09.611Z,2.53
2023-03-28T09:55:09.622Z,2.56
2023-03-28T09:56:09.621Z,2.36
2023-03-28T09:57:09.594Z,2.35
2023-03-28T09:58:09.521Z,2.23
2023-03-28T09:59:09.723Z,2.20
2023-03-28T10:00:09.579Z,2.07
2023-03-28T10:01:09.665Z,2.24
2023-03-28T10:03:32.077Z,2.20
2023-03-28T10:04:31.959Z,2.36
2023-03-28T10:05:31.907Z,2.52
2023-03-28T10:06:31.969Z,2.61
2023-03-28T10:07:31.954Z,2.81
2023-03-28T10:08:31.758Z,2.77
2023-03-28T10:09:31.956Z,2.75
2023-03-28T10:10:31.872Z,2.78
2023-03-28T10:11:31.766Z,2.66
2023-03-28T10:12:31.740Z,2.77
2023-03-28T10:13:31.802Z,2.85
2023-03-28T10:14:31.725Z,2.95
2023-03-28T10:15:31.745Z,2.95
2023-03-28T10:16:31.756Z,2.97
2023-03-28T10:23:48.735Z,2.46
2023-03-28T10:24:48.684Z,2.54
2023-03-28T10:25:48.740Z,2.59
2023-03-28T10:26:48.659Z,2.75
2023-03-28T10:27:48.669Z,2.82
2023-03-28T10:28:48.653Z,2.89
2023-03-28T10:29:48.618Z,2.89
2023-03-28T10:30:48.683Z,2.84
2023-03-28T10:31:48.607Z,2.78
2023-03-28T10:32:48.654Z,2.92
2023-03-28T10:33:48.579Z,2.97
2023-03-28T10:34:48.622Z,3.23
2023-03-28T10:35:48.626Z,3.35
2023-03-28T10:36:48.588Z,3.60
2023-03-28T10:37:48.548Z,3.60
2023-03-28T10:38:48.561Z,3.55
2023-03-28T10:39:48.567Z,3.43
2023-03-28T10:40:48.548Z,3.28
2023-03-28T10:41:48.505Z,3.23
2023-03-28T10:42:48.482Z,3.24
2023-03-28T10:43:48.477Z,3.15
2023-03-28T10:44:49.119Z,3.23
2023-03-28T10:45:48.478Z,3.17
2023-03-28T10:46:48.502Z,3.24
2023-03-28T10:47:48.482Z,3.17
2023-03-28T10:48:48.422Z,3.06
2023-03-28T10:49:48.399Z,3.11
2023-03-28T10:50:48.426Z,3.06
2023-03-28T10:51:48.410Z,3.08
2023-03-28T10:52:48.371Z,3.10
2023-03-28T10:53:48.354Z,3.10
2023-03-28T10:54:48.349Z,3.13
2023-03-28T10:55:48.370Z,3.28
2023-03-28T10:56:48.402Z,3.32
2023-03-28T10:57:48.334Z,3.28
2023-03-28T10:58:48.374Z,3.28
2023-03-28T10:59:48.297Z,3.31
2023-03-28T11:00:48.312Z,3.31
2023-03-28T11:01:48.352Z,3.10
2023-03-28T11:02:48.423Z,3.10
2023-03-28T11:03:48.440Z,3.02
2023-03-28T11:04:48.246Z,3.06
2023-03-28T11:06:01.681Z,3.06
2023-03-28T11:06:49.216Z,3.08
2023-03-28T11:07:48.301Z,3.00
2023-03-28T11:08:48.205Z,2.97
2023-03-28T11:09:48.329Z,3.06
2023-03-28T11:10:48.186Z,3.21
2023-03-28T11:11:48.193Z,3.43
2023-03-28T11:12:55.039Z,3.62
2023-03-28T11:13:49.154Z,3.66
2023-03-28T11:14:48.163Z,3.66
2023-03-28T11:15:48.216Z,3.76
2023-03-28T11:16:48.120Z,3.93
2023-03-28T11:17:48.216Z,4.00
2023-03-28T11:18:48.085Z,3.90
2023-03-28T11:19:48.095Z,3.94
2023-03-28T11:20:48.058Z,3.79
2023-03-28T11:21:48.042Z,3.73
2023-03-28T11:23:02.747Z,3.54
2023-03-28T11:23:49.082Z,3.66
2023-03-28T11:24:48.056Z,3.40
2023-03-28T11:25:47.990Z,3.36
2023-03-28T11:26:47.997Z,3.23
2023-03-28T11:27:47.996Z,3.08
2023-03-28T11:28:48.004Z,3.23
2023-03-28T11:29:47.978Z,3.43
2023-03-28T11:30:47.928Z,3.48
2023-03-28T11:31:48.059Z,3.62
2023-03-28T11:32:47.946Z,3.55
2023-03-28T11:33:47.915Z,3.65
2023-03-28T11:34:47.887Z,3.73
2023-03-28T11:35:47.963Z,3.79
2023-03-28T11:36:47.881Z,3.91
2023-03-28T11:37:47.846Z,3.76
2023-03-28T11:38:47.846Z,3.75
2023-03-28T11:39:47.870Z,3.62
2023-03-28T11:40:47.832Z,3.55
2023-03-28T11:41:47.938Z,3.68
2023-03-28T11:42:47.796Z,3.54
2023-03-28T11:43:47.819Z,3.75
2023-03-28T11:44:47.798Z,3.96
2023-03-28T11:45:52.133Z,4.06
2023-03-28T11:46:48.859Z,4.24
2023-03-28T11:47:47.816Z,4.26
2023-03-28T11:48:47.762Z,4.32
2023-03-28T11:49:47.710Z,4.40
2023-03-28T11:50:47.751Z,4.48
2023-03-28T11:51:47.694Z,4.40
2023-03-28T11:52:47.674Z,4.29
2023-03-28T11:53:47.666Z,4.18
2023-03-28T11:54:47.689Z,4.16
2023-03-28T11:55:47.665Z,4.12
2023-03-28T11:56:47.640Z,4.12
2023-03-28T11:57:47.633Z,4.02
2023-03-28T11:58:47.610Z,4.11
2023-03-28T11:59:47.620Z,4.18
2023-03-28T12:00:47.640Z,4.30
2023-03-28T12:01:47.584Z,4.33
2023-03-28T12:02:47.655Z,4.18
2023-03-28T12:03:47.637Z,4.20
2023-03-28T12:04:47.543Z,4.20
2023-03-28T12:05:47.551Z,4.30
2023-03-28T12:06:59.634Z,4.32
2023-03-28T12:07:48.510Z,4.18
2023-03-28T12:08:47.517Z,4.02
2023-03-28T12:09:47.515Z,3.87
2023-03-28T12:10:47.496Z,3.70
2023-03-28T12:11:47.462Z,3.75
2023-03-28T12:12:47.464Z,3.78
2023-03-28T12:13:55.439Z,3.76
2023-03-28T12:14:48.432Z,3.73
2023-03-28T12:15:47.448Z,3.68
2023-03-28T12:16:47.501Z,3.70
2023-03-28T12:17:47.431Z,3.79
2023-03-28T12:18:47.407Z,4.04
2023-03-28T12:19:47.466Z,4.32
2023-03-28T12:20:47.363Z,4.37
2023-03-28T12:21:47.357Z,4.33
2023-03-28T12:22:47.371Z,4.29
2023-03-28T12:23:47.341Z,4.33
2023-03-28T12:24:47.320Z,4.24
2023-03-28T12:25:47.330Z,4.20
2023-03-28T12:26:47.376Z,4.09
2023-03-28T12:27:47.289Z,4.11
2023-03-28T12:28:47.273Z,4.06
2023-03-28T12:29:47.282Z,4.29
2023-03-28T12:30:47.266Z,4.36
2023-03-28T12:31:47.269Z,4.23
2023-03-28T12:32:47.229Z,4.32
2023-03-28T12:33:47.221Z,4.36
2023-03-28T12:34:47.227Z,4.59
2023-03-28T12:35:47.233Z,4.70
2023-03-28T12:36:47.192Z,4.92
2023-03-28T12:37:47.189Z,4.77
2023-03-28T12:38:47.160Z,4.54
2023-03-28T12:39:47.178Z,4.52
2023-03-28T12:40:47.160Z,4.48
2023-03-28T12:41:47.129Z,4.51
2023-03-28T12:42:47.110Z,4.29
2023-03-28T12:43:47.095Z,4.09
2023-03-28T12:44:47.119Z,4.04
2023-03-28T12:45:47.142Z,3.79
2023-03-28T12:46:47.062Z,3.78
2023-03-28T12:47:47.114Z,3.78
2023-03-28T12:48:47.044Z,3.88
2023-03-28T12:49:47.025Z,3.91
2023-03-28T12:50:47.060Z,3.78
2023-03-28T12:51:47.008Z,3.88
2023-03-28T12:52:47.000Z,3.72
2023-03-28T12:53:46.989Z,3.76
2023-03-28T12:54:46.970Z,3.68
2023-03-28T12:55:46.982Z,3.72
2023-03-28T12:56:46.992Z,3.72
2023-03-28T12:57:47.058Z,3.60
2023-03-28T12:58:46.928Z,3.60
2023-03-28T12:59:46.934Z,3.73
2023-03-28T13:00:46.907Z,3.75
2023-03-28T13:01:46.961Z,3.76
2023-03-28T13:02:47.005Z,3.80
2023-03-28T13:03:46.916Z,3.76
2023-03-28T13:04:46.926Z,3.75
2023-03-28T13:05:46.865Z,3.72
2023-03-28T13:06:46.847Z,3.62
2023-03-28T13:07:46.854Z,3.66
2023-03-28T13:08:46.830Z,3.66
2023-03-28T13:09:46.807Z,3.68
2023-03-28T13:10:46.820Z,3.57
2023-03-28T13:11:46.784Z,3.65
2023-03-28T13:12:46.771Z,3.66
2023-03-28T13:13:46.783Z,3.66
2023-03-28T13:14:46.761Z,3.78
2023-03-28T13:15:46.758Z,3.78
2023-03-28T13:16:46.751Z,3.87
2023-03-28T13:17:46.762Z,3.94
2023-03-28T13:18:46.726Z,4.11
2023-03-28T13:19:46.937Z,4.30
2023-03-28T13:20:46.698Z,4.44
2023-03-28T13:21:46.668Z,4.60
2023-03-28T13:22:46.677Z,4.85
2023-03-28T13:23:46.706Z,4.92
2023-03-28T13:24:46.646Z,5.03
2023-03-28T13:25:46.647Z,5.15
2023-03-28T13:26:46.625Z,5.33
2023-03-28T13:27:46.600Z,5.54
2023-03-28T13:28:46.602Z,5.64
2023-03-28T13:29:46.589Z,5.68